createdAt,value
2019-02-22T00:02:08.683Z,21.00
2019-02-22T00:04:50.693Z,20.53
2019-02-22T00:07:32.592Z,18.57
2019-02-22T00:10:13.663Z,21.17
2019-02-22T00:12:54.744Z,19.57
2019-02-22T00:15:36.427Z,19.57
2019-02-22T00:18:18.612Z,21.57
2019-02-22T00:21:01.262Z,19.67
2019-02-22T00:23:43.019Z,19.73
2019-02-22T00:26:24.146Z,22.27
2019-02-22T00:29:04.911Z,20.37
2019-02-22T00:31:45.819Z,20.13
2019-02-22T00:34:27.107Z,22.13
2019-02-22T00:37:08.205Z,22.53
2019-02-22T00:39:49.788Z,20.93
2019-02-22T00:42:32.406Z,21.33
2019-02-22T00:45:14.806Z,23.80
2019-02-22T00:47:56.141Z,19.93
2019-02-22T00:50:37.400Z,21.17
2019-02-22T00:53:19.782Z,21.93
2019-02-22T00:56:01.878Z,23.67
2019-02-22T00:58:42.490Z,22.07
2019-02-22T01:01:24.675Z,21.57
2019-02-22T01:04:05.241Z,22.70
2019-02-22T01:06:46.194Z,22.60
2019-02-22T01:09:27.011Z,22.20
2019-02-22T01:12:08.326Z,23.60
2019-02-22T01:17:33.360Z,21.63
2019-02-22T01:20:14.959Z,21.60
2019-02-22T01:22:55.487Z,21.20
2019-02-22T01:25:36.011Z,22.03
2019-02-22T01:28:17.344Z,21.40
2019-02-22T01:30:58.131Z,20.70
2019-02-22T01:33:39.232Z,20.03
2019-02-22T01:36:19.737Z,19.77
2019-02-22T01:39:00.363Z,20.10
2019-02-22T01:41:40.959Z,18.97
2019-02-22T01:44:21.456Z,18.17
2019-02-22T01:47:06.077Z,18.63
2019-02-22T01:49:48.326Z,17.53
2019-02-22T01:52:30.091Z,18.40
2019-02-22T01:55:10.544Z,17.40
2019-02-22T01:57:51.513Z,16.77
2019-02-22T02:00:31.948Z,17.33
2019-02-22T02:03:12.638Z,17.53
2019-02-22T02:05:54.332Z,17.80
2019-02-22T02:08:36.666Z,17.47
2019-02-22T02:11:17.726Z,18.03
2019-02-22T02:13:59.702Z,19.07
2019-02-22T02:16:40.597Z,18.73
2019-02-22T02:22:05.601Z,17.70
2019-02-22T02:24:46.918Z,17.40
2019-02-22T02:27:29.117Z,17.70
2019-02-22T02:30:10.495Z,18.30
2019-02-22T02:32:51.093Z,17.60
2019-02-22T02:35:33.025Z,18.63
2019-02-22T02:38:14.275Z,18.00
2019-02-22T02:41:08.085Z,19.07
2019-02-22T02:43:40.125Z,19.27
2019-02-22T02:46:20.645Z,18.53
2019-02-22T02:49:01.138Z,19.37
2019-02-22T02:51:41.890Z,19.43
2019-02-22T02:54:22.863Z,19.03
2019-02-22T02:57:03.726Z,19.20
2019-02-22T02:59:43.951Z,19.27
2019-02-22T03:02:28.323Z,18.87
2019-02-22T03:05:10.785Z,20.00
2019-02-22T03:07:51.624Z,21.13
2019-02-22T03:10:32.254Z,20.40
2019-02-22T03:13:13.025Z,20.97
2019-02-22T03:15:53.818Z,20.13
2019-02-22T03:18:34.854Z,21.13
2019-02-22T03:21:15.297Z,20.70
2019-02-22T03:23:56.733Z,21.17
2019-02-22T03:29:16.730Z,21.20
2019-02-22T03:31:58.869Z,21.83
2019-02-22T03:34:40.507Z,20.43
2019-02-22T03:37:21.243Z,18.90
2019-02-22T03:40:01.791Z,22.30
2019-02-22T03:42:42.529Z,19.67
2019-02-22T03:48:07.916Z,19.27
2019-02-22T03:50:49.551Z,20.37
2019-02-22T03:53:32.235Z,19.63
2019-02-22T03:56:13.085Z,21.67
2019-02-22T03:58:54.070Z,23.23
2019-02-22T04:01:34.934Z,22.17
2019-02-22T04:04:15.484Z,22.27
2019-02-22T04:06:56.646Z,22.57
2019-02-22T04:09:37.667Z,23.13
2019-02-22T04:12:19.616Z,22.30
2019-02-22T04:15:01.415Z,24.07
2019-02-22T04:17:42.225Z,19.80
2019-02-22T04:20:24.234Z,20.77
2019-02-22T04:23:05.846Z,22.73
2019-02-22T04:25:46.400Z,26.50
2019-02-22T04:28:26.924Z,26.60
2019-02-22T04:31:08.230Z,23.67
2019-02-22T04:33:50.898Z,23.40
2019-02-22T04:36:32.819Z,23.80
2019-02-22T04:39:14.291Z,25.50
2019-02-22T04:41:58.298Z,22.83
2019-02-22T04:44:38.617Z,22.73
2019-02-22T04:47:20.823Z,22.87
2019-02-22T04:50:03.135Z,28.07
2019-02-22T04:52:44.086Z,25.53
2019-02-22T04:55:24.966Z,26.93
2019-02-22T04:58:05.673Z,23.67
2019-02-22T05:00:46.245Z,24.17
2019-02-22T05:03:27.063Z,25.27
2019-02-22T05:06:08.978Z,23.17
2019-02-22T05:08:50.096Z,23.30
2019-02-22T05:11:31.369Z,23.67
2019-02-22T05:14:15.277Z,24.50
2019-02-22T05:16:58.013Z,25.93
2019-02-22T05:19:38.945Z,24.50
2019-02-22T05:22:19.349Z,25.77
2019-02-22T05:25:00.886Z,21.93
2019-02-22T05:27:41.408Z,22.10
2019-02-22T05:30:22.863Z,23.27
2019-02-22T05:33:03.824Z,22.50
2019-02-22T05:35:48.619Z,25.67
2019-02-22T05:38:29.593Z,22.90
2019-02-22T05:41:11.061Z,23.37
2019-02-22T05:43:51.728Z,24.87
2019-02-22T05:46:32.523Z,23.37
2019-02-22T05:49:14.059Z,24.60
2019-02-22T05:51:54.416Z,24.87
2019-02-22T05:54:35.535Z,23.53
2019-02-22T05:57:16.268Z,23.67
2019-02-22T05:59:57.077Z,23.10
2019-02-22T06:02:37.570Z,23.63
2019-02-22T06:05:18.610Z,24.47
2019-02-22T06:07:59.493Z,22.67
2019-02-22T06:10:40.534Z,23.20
2019-02-22T06:13:22.219Z,22.90
2019-02-22T06:16:03.549Z,24.17
2019-02-22T06:18:44.687Z,21.90
2019-02-22T06:24:10.173Z,22.73
2019-02-22T06:26:51.032Z,23.00
2019-02-22T06:29:31.645Z,21.73
2019-02-22T06:32:12.704Z,24.47
2019-02-22T06:34:53.564Z,23.23
2019-02-22T06:37:34.787Z,23.47
2019-02-22T06:40:15.316Z,22.63
2019-02-22T06:42:56.984Z,21.83
2019-02-22T06:45:38.521Z,23.83
2019-02-22T06:48:19.186Z,22.57
2019-02-22T06:50:59.964Z,21.93
2019-02-22T06:53:40.650Z,22.63
2019-02-22T06:56:24.011Z,25.70
2019-02-22T06:59:06.017Z,27.43
2019-02-22T07:01:46.452Z,43.73
2019-02-22T07:04:27.776Z,32.77
2019-02-22T07:07:08.492Z,30.20
2019-02-22T07:09:49.035Z,30.60
2019-02-22T07:12:31.638Z,28.37
2019-02-22T07:15:16.912Z,26.07
2019-02-22T07:17:57.841Z,26.20
2019-02-22T07:20:38.191Z,27.97
2019-02-22T07:23:19.061Z,26.43
2019-02-22T07:28:50.849Z,25.50
2019-02-22T07:31:31.608Z,23.93
2019-02-22T07:34:13.030Z,23.70
2019-02-22T07:36:54.091Z,22.70
2019-02-22T07:39:34.816Z,21.93
2019-02-22T07:42:15.522Z,20.87
2019-02-22T07:44:56.593Z,20.77
2019-02-22T07:47:37.508Z,21.80
2019-02-22T07:50:18.067Z,21.93
2019-02-22T07:52:59.834Z,20.87
2019-02-22T07:55:40.871Z,21.27
2019-02-22T07:58:21.661Z,20.17
2019-02-22T08:01:02.297Z,20.87
2019-02-22T08:03:43.496Z,20.83
2019-02-22T08:06:24.285Z,19.50
2019-02-22T08:09:05.646Z,20.87
2019-02-22T08:11:47.592Z,20.63
2019-02-22T08:17:14.730Z,20.57
2019-02-22T08:19:56.766Z,21.93
2019-02-22T08:22:38.208Z,23.20
2019-02-22T08:25:19.644Z,29.50
2019-02-22T08:28:00.320Z,25.90
2019-02-22T08:30:41.022Z,21.87
2019-02-22T08:33:21.956Z,21.63
2019-02-22T08:36:02.680Z,20.87
2019-02-22T08:38:44.833Z,20.87
2019-02-22T08:41:25.629Z,21.17
2019-02-22T08:44:07.445Z,21.03
2019-02-22T08:46:48.210Z,21.40
2019-02-22T08:49:28.716Z,21.50
2019-02-22T08:52:10.067Z,22.80
2019-02-22T08:54:51.108Z,21.10
2019-02-22T08:57:32.642Z,20.70
2019-02-22T09:00:15.027Z,20.87
2019-02-22T09:02:56.398Z,20.10
2019-02-22T09:08:21.943Z,20.53
2019-02-22T09:11:02.900Z,20.33
2019-02-22T09:13:44.070Z,21.87
2019-02-22T09:16:24.991Z,22.23
2019-02-22T09:19:05.806Z,21.37
2019-02-22T09:21:48.177Z,21.83
2019-02-22T09:24:29.775Z,22.87
2019-02-22T09:27:10.569Z,22.33
2019-02-22T09:29:58.751Z,23.60
2019-02-22T09:32:34.508Z,23.03
2019-02-22T09:35:15.064Z,22.20
2019-02-22T09:37:56.484Z,22.47
2019-02-22T09:40:36.990Z,23.63
2019-02-22T09:43:19.299Z,23.23
2019-02-22T09:46:00.298Z,23.33
2019-02-22T09:48:41.025Z,23.50
2019-02-22T09:51:21.650Z,24.50
2019-02-22T09:54:02.100Z,25.50
2019-02-22T09:56:42.605Z,26.17
2019-02-22T09:59:23.831Z,25.67
2019-02-22T10:02:05.493Z,26.50
2019-02-22T10:04:54.561Z,24.00
2019-02-22T10:07:30.281Z,25.67
2019-02-22T10:10:10.814Z,24.80
2019-02-22T10:12:53.522Z,26.53
2019-02-22T10:15:35.694Z,27.07
2019-02-22T10:18:16.186Z,27.13
2019-02-22T10:20:56.714Z,25.87
2019-02-22T10:23:37.632Z,28.00
2019-02-22T10:26:21.394Z,27.30
2019-02-22T10:29:01.351Z,26.93
2019-02-22T10:31:41.896Z,28.07
2019-02-22T10:34:22.766Z,29.13
2019-02-22T10:37:03.707Z,27.97
2019-02-22T10:39:45.290Z,28.50
2019-02-22T10:42:27.568Z,28.23
2019-02-22T10:45:09.363Z,28.40
2019-02-22T10:47:50.117Z,28.80
2019-02-22T10:50:32.168Z,27.83
2019-02-22T10:53:13.095Z,26.60
2019-02-22T10:55:54.188Z,28.70
2019-02-22T10:58:35.114Z,27.73
2019-02-22T11:01:15.617Z,28.93
2019-02-22T11:03:59.714Z,28.97
2019-02-22T11:09:25.283Z,29.73
2019-02-22T11:14:44.940Z,28.83
2019-02-22T11:17:25.543Z,28.87
2019-02-22T11:20:06.545Z,28.40
2019-02-22T11:22:47.464Z,28.53
2019-02-22T11:28:21.632Z,27.93
2019-02-22T11:33:49.835Z,27.87
2019-02-22T11:39:19.686Z,28.23
2019-02-22T11:42:00.495Z,27.23
2019-02-22T11:44:42.769Z,28.67
2019-02-22T11:47:23.977Z,25.93
2019-02-22T11:50:04.475Z,26.83
2019-02-22T11:52:46.103Z,26.33
2019-02-22T11:55:26.690Z,28.60
2019-02-22T11:58:07.687Z,29.20
2019-02-22T12:00:48.495Z,26.73
2019-02-22T12:03:29.379Z,28.70
2019-02-22T12:06:09.713Z,27.40
2019-02-22T12:08:51.978Z,22.90
2019-02-22T12:11:33.084Z,23.70
2019-02-22T12:14:15.004Z,22.20
2019-02-22T12:16:57.124Z,23.87
2019-02-22T12:19:38.383Z,22.93
2019-02-22T12:22:19.591Z,21.60
2019-02-22T12:25:00.204Z,19.47
2019-02-22T12:27:42.062Z,17.97
2019-02-22T12:30:22.589Z,17.83
2019-02-22T12:33:04.751Z,18.30
2019-02-22T12:35:46.071Z,16.83
2019-02-22T12:38:28.231Z,18.77
2019-02-22T12:41:09.658Z,17.80
2019-02-22T12:43:50.396Z,17.53
2019-02-22T12:46:31.117Z,16.93
2019-02-22T12:49:12.085Z,18.53
2019-02-22T12:51:53.505Z,18.60
2019-02-22T12:54:21.961Z,18.23
2019-02-22T12:57:10.003Z,16.90
2019-02-22T12:59:57.787Z,18.37
2019-02-22T13:02:46.681Z,17.13
2019-02-22T13:05:34.456Z,12.07
2019-02-22T13:08:22.236Z,11.63
2019-02-22T13:11:03.109Z,12.53
2019-02-22T13:13:43.417Z,11.97
2019-02-22T13:16:24.653Z,12.13
2019-02-22T13:19:06.040Z,13.17
2019-02-22T13:21:47.193Z,14.03
2019-02-22T13:24:29.382Z,13.00
2019-02-22T13:27:10.275Z,14.17
2019-02-22T13:29:51.859Z,13.00
2019-02-22T13:32:32.506Z,12.50
2019-02-22T13:35:14.243Z,12.80
2019-02-22T13:37:55.972Z,12.43
2019-02-22T13:40:37.800Z,12.77
2019-02-22T13:43:19.522Z,11.63
2019-02-22T13:46:00.827Z,12.17
2019-02-22T13:48:42.228Z,12.13
2019-02-22T13:51:23.004Z,11.93
2019-02-22T13:54:05.168Z,12.03
2019-02-22T13:56:45.952Z,13.17
2019-02-22T13:59:27.459Z,11.23
2019-02-22T14:02:09.396Z,9.03
2019-02-22T14:07:33.796Z,8.93
2019-02-22T14:10:15.203Z,8.40
2019-02-22T14:12:57.498Z,9.27
2019-02-22T14:15:38.603Z,8.70
2019-02-22T14:18:19.151Z,8.10
2019-02-22T14:20:59.886Z,6.63
2019-02-22T14:23:41.990Z,6.00
2019-02-22T14:26:23.191Z,7.43
2019-02-22T14:29:04.830Z,11.77
2019-02-22T14:31:47.054Z,10.93
2019-02-22T14:37:12.267Z,8.47
2019-02-22T14:40:02.556Z,7.70
2019-02-22T14:42:23.424Z,7.40
2019-02-22T14:45:11.807Z,6.33
2019-02-22T14:47:59.771Z,5.80
2019-02-22T14:50:47.811Z,5.57
2019-02-22T14:53:35.564Z,5.73
2019-02-22T14:56:23.348Z,5.90
2019-02-22T14:59:11.388Z,5.17
2019-02-22T15:01:59.405Z,6.37
2019-02-22T15:07:55.758Z,7.47
2019-02-22T15:10:43.534Z,6.90
2019-02-22T15:13:31.590Z,9.00
2019-02-22T15:16:40.659Z,14.13
2019-02-22T15:19:28.687Z,8.53
2019-02-22T15:22:16.457Z,7.50
2019-02-22T15:25:25.200Z,6.93
2019-02-22T15:28:13.353Z,7.03
2019-02-22T15:30:41.911Z,6.50
2019-02-22T15:33:29.999Z,7.43
2019-02-22T15:36:18.045Z,19.73
2019-02-22T15:39:06.055Z,12.37
2019-02-22T15:41:54.092Z,9.07
2019-02-22T15:44:42.020Z,8.83
2019-02-22T15:47:30.101Z,8.53
2019-02-22T15:53:27.132Z,9.63
2019-02-22T15:56:14.963Z,12.00
2019-02-22T15:59:03.132Z,11.47
2019-02-22T16:01:55.620Z,12.00
2019-02-22T16:07:49.509Z,12.63
2019-02-22T16:10:37.575Z,12.13
2019-02-22T16:13:18.345Z,12.60
2019-02-22T16:15:59.011Z,14.07
2019-02-22T16:18:40.260Z,13.70
2019-02-22T16:21:20.842Z,13.37
2019-02-22T16:24:01.342Z,12.97
2019-02-22T16:26:41.955Z,14.47
2019-02-22T16:29:22.678Z,14.93
2019-02-22T16:34:47.740Z,14.13
2019-02-22T16:37:28.620Z,13.70
2019-02-22T16:40:09.265Z,13.47
2019-02-22T16:42:51.521Z,13.60
2019-02-22T16:45:32.969Z,14.20
2019-02-22T16:48:13.804Z,12.97
2019-02-22T16:50:54.583Z,13.23
2019-02-22T16:53:35.782Z,12.77
2019-02-22T16:56:16.451Z,14.50
2019-02-22T16:58:57.038Z,13.10
2019-02-22T17:01:37.680Z,13.23
2019-02-22T17:04:18.875Z,13.27
2019-02-22T17:09:46.651Z,12.60
2019-02-22T17:12:28.135Z,12.67
2019-02-22T17:15:08.823Z,12.97
2019-02-22T17:17:49.519Z,14.30
2019-02-22T17:20:30.493Z,13.07
2019-02-22T17:23:11.522Z,12.93
2019-02-22T17:25:52.279Z,13.90
2019-02-22T17:28:33.863Z,13.13
2019-02-22T17:31:14.764Z,12.33
2019-02-22T17:33:55.095Z,13.00
2019-02-22T17:36:35.915Z,12.40
2019-02-22T17:39:16.501Z,13.67
2019-02-22T17:41:57.136Z,12.90
2019-02-22T17:44:37.864Z,12.77
2019-02-22T17:47:18.754Z,12.37
2019-02-22T17:50:02.370Z,12.20
2019-02-22T17:52:42.779Z,13.20
2019-02-22T17:58:07.655Z,12.83
2019-02-22T18:00:49.245Z,13.33
2019-02-22T18:03:30.385Z,13.27
2019-02-22T18:06:10.963Z,14.00
2019-02-22T18:08:52.284Z,14.30
2019-02-22T18:11:33.663Z,14.63
2019-02-22T18:14:17.554Z,14.77
2019-02-22T18:17:07.768Z,14.80
2019-02-22T18:19:41.028Z,13.83
2019-02-22T18:22:25.706Z,15.10
2019-02-22T18:25:04.555Z,13.40
2019-02-22T18:27:45.192Z,14.13
2019-02-22T18:30:26.066Z,16.13
2019-02-22T18:33:06.541Z,15.70
2019-02-22T18:35:47.218Z,15.70
2019-02-22T18:38:27.724Z,15.33
2019-02-22T18:41:08.256Z,15.47
2019-02-22T18:43:48.783Z,14.97
2019-02-22T18:46:29.881Z,13.73
2019-02-22T18:49:10.661Z,13.67
2019-02-22T18:51:51.391Z,14.87
2019-02-22T18:54:31.910Z,14.53
2019-02-22T18:57:12.647Z,14.27
2019-02-22T18:59:53.239Z,13.10
2019-02-22T19:02:34.145Z,18.43
2019-02-22T19:05:14.932Z,17.57
2019-02-22T19:07:55.476Z,21.47
2019-02-22T19:10:39.610Z,17.73
2019-02-22T19:13:21.120Z,13.90
2019-02-22T19:16:02.330Z,13.23
2019-02-22T19:18:43.635Z,12.50
2019-02-22T19:24:11.739Z,10.97
2019-02-22T19:26:52.139Z,10.70
2019-02-22T19:29:32.899Z,10.73
2019-02-22T19:32:13.421Z,10.60
2019-02-22T19:34:54.091Z,10.73
2019-02-22T19:37:34.416Z,11.67
2019-02-22T19:40:15.083Z,21.47
2019-02-22T19:42:56.198Z,16.47
2019-02-22T19:45:36.822Z,20.07
2019-02-22T19:48:17.539Z,14.47
2019-02-22T19:50:59.058Z,13.40
2019-02-22T19:53:40.204Z,12.43
2019-02-22T19:56:21.253Z,11.60
2019-02-22T19:59:02.072Z,11.97
2019-02-22T20:01:43.104Z,11.13
2019-02-22T20:04:23.941Z,11.27
2019-02-22T20:07:04.254Z,12.00
2019-02-22T20:09:45.418Z,11.50
2019-02-22T20:12:26.352Z,11.80
2019-02-22T20:15:08.110Z,11.20
2019-02-22T20:17:54.456Z,12.97
2019-02-22T20:20:35.149Z,23.07
2019-02-22T20:26:01.484Z,16.10
2019-02-22T20:28:41.773Z,12.20
2019-02-22T20:31:22.212Z,12.00
2019-02-22T20:34:02.801Z,10.67
2019-02-22T20:36:44.169Z,10.77
2019-02-22T20:39:24.891Z,10.43
2019-02-22T20:44:49.286Z,10.43
2019-02-22T20:47:29.762Z,10.90
2019-02-22T20:50:10.741Z,10.07
2019-02-22T20:52:51.024Z,11.37
2019-02-22T20:55:31.430Z,11.83
2019-02-22T20:58:12.241Z,11.37
2019-02-22T21:00:53.933Z,11.30
2019-02-22T21:03:34.437Z,12.40
2019-02-22T21:06:14.688Z,11.57
2019-02-22T21:08:56.360Z,11.53
2019-02-22T21:11:37.735Z,11.03
2019-02-22T21:14:18.030Z,11.13
2019-02-22T21:16:58.919Z,12.07
2019-02-22T21:19:39.953Z,12.67
2019-02-22T21:25:08.032Z,12.03
2019-02-22T21:30:32.808Z,11.97
2019-02-22T21:33:13.743Z,10.33
2019-02-22T21:35:54.306Z,12.07
2019-02-22T21:41:23.499Z,10.83
2019-02-22T21:44:04.133Z,11.57
2019-02-22T21:46:44.475Z,11.60
2019-02-22T21:49:25.177Z,12.23
2019-02-22T21:54:50.822Z,11.00
2019-02-22T21:57:31.097Z,10.57
2019-02-22T22:00:13.387Z,10.70
2019-02-22T22:02:54.463Z,11.20
2019-02-22T22:05:35.286Z,10.83
2019-02-22T22:11:00.431Z,10.50
2019-02-22T22:16:22.992Z,10.20
2019-02-22T22:19:03.454Z,9.43
2019-02-22T22:21:45.293Z,10.03
2019-02-22T22:24:25.577Z,10.17
2019-02-22T22:27:06.224Z,8.83
2019-02-22T22:29:47.086Z,8.60
2019-02-22T22:32:27.346Z,9.17
2019-02-22T22:35:08.091Z,9.73
2019-02-22T22:37:48.854Z,8.03
2019-02-22T22:40:29.651Z,8.87
2019-02-22T22:43:10.413Z,10.07
2019-02-22T22:45:51.022Z,10.10
2019-02-22T22:48:31.880Z,9.67
2019-02-22T22:51:12.242Z,10.00
2019-02-22T22:53:52.849Z,11.00
2019-02-22T22:56:33.818Z,9.60
2019-02-22T22:59:17.526Z,9.70
2019-02-22T23:01:56.357Z,10.47
2019-02-22T23:04:44.127Z,10.27
2019-02-22T23:07:32.630Z,10.63
2019-02-22T23:10:20.402Z,10.23
2019-02-22T23:13:08.155Z,10.70
2019-02-22T23:15:55.928Z,10.40
2019-02-22T23:18:43.937Z,10.03
2019-02-22T23:21:31.711Z,11.17
2019-02-22T23:24:19.555Z,11.40
2019-02-22T23:27:07.360Z,10.97
2019-02-22T23:29:55.139Z,10.43
2019-02-22T23:32:43.208Z,10.80
2019-02-22T23:35:31.696Z,10.77
2019-02-22T23:38:19.469Z,11.47
2019-02-22T23:41:07.233Z,11.67
2019-02-22T23:43:55.006Z,10.50
2019-02-22T23:46:42.784Z,10.73
2019-02-22T23:49:30.566Z,11.23
2019-02-22T23:52:19.117Z,10.97
2019-02-22T23:55:06.962Z,10.60
2019-02-22T23:57:54.720Z,10.53
